Time;durP1;ratioP1;P1;durP2;ratioP2;P2;SDS_P1;SDS_P2;PMS_P1;PMS_P2;Temp;Humidity;BMP_temperature;BMP_pressure;BME280_temperature;BME280_humidity;BME280_pressure;Samples;Min_cycle;Max_cycle;Signal;HPM_P1;HPM_P2
2021/09/25 00:01:19;;;;;;;2.60;2.25;;;22.80;55.20;;;;;;5019142;28;20395;-75
2021/09/25 00:03:44;;;;;;;3.45;2.45;;;22.80;55.10;;;;;;5016710;28;20389;-77
2021/09/25 00:06:11;;;;;;;2.72;2.40;;;22.80;55.10;;;;;;5016279;28;20913;-75
2021/09/25 00:08:36;;;;;;;3.35;2.60;;;22.80;55.00;;;;;;5015292;28;20412;-75
2021/09/25 00:11:02;;;;;;;2.70;2.37;;;22.80;55.00;;;;;;5015198;28;21175;-76
2021/09/25 00:13:28;;;;;;;3.08;2.45;;;22.70;55.10;;;;;;5015215;28;20396;-77
2021/09/25 00:15:54;;;;;;;2.97;2.40;;;22.80;55.00;;;;;;5018918;28;20525;-77
2021/09/25 00:18:19;;;;;;;2.78;2.30;;;22.70;55.10;;;;;;5018711;28;20385;-79
2021/09/25 00:20:45;;;;;;;3.33;2.60;;;22.70;55.00;;;;;;5018430;28;20420;-78
2021/09/25 00:23:11;;;;;;;3.10;2.40;;;22.70;55.00;;;;;;5018281;28;20385;-78
2021/09/25 00:25:36;;;;;;;3.30;2.53;;;22.70;55.10;;;;;;5017974;28;20423;-77
2021/09/25 00:28:03;;;;;;;3.20;2.45;;;22.70;55.10;;;;;;5017164;28;20396;-76
2021/09/25 00:30:28;;;;;;;3.10;2.40;;;22.70;55.00;;;;;;5017366;28;20422;-76
2021/09/25 00:32:54;;;;;;;2.92;2.30;;;22.70;55.00;;;;;;5017939;28;20449;-75
2021/09/25 00:35:20;;;;;;;3.57;2.40;;;22.70;54.80;;;;;;5016944;28;20402;-78
2021/09/25 00:37:45;;;;;;;3.30;2.45;;;22.70;55.00;;;;;;5018409;28;21008;-77
2021/09/25 00:40:14;;;;;;;2.57;2.27;;;22.70;55.00;;;;;;5017747;28;20406;-77
2021/09/25 00:42:40;;;;;;;3.45;2.55;;;22.70;55.10;;;;;;5015990;28;20456;-78
2021/09/25 00:45:07;;;;;;;2.50;2.17;;;22.70;55.10;;;;;;5014003;28;20519;-76
2021/09/25 00:47:34;;;;;;;3.30;2.45;;;22.60;55.00;;;;;;5017185;28;20393;-77
2021/09/25 00:50:00;;;;;;;3.20;2.55;;;22.70;54.90;;;;;;5015460;28;20400;-77
2021/09/25 00:52:26;;;;;;;3.42;2.40;;;22.70;55.10;;;;;;5017319;28;20397;-75
2021/09/25 00:54:51;;;;;;;2.73;2.30;;;22.70;54.90;;;;;;5014147;28;20403;-75
2021/09/25 00:57:18;;;;;;;2.90;2.28;;;22.60;55.40;;;;;;5014312;28;20486;-75
2021/09/25 00:59:44;;;;;;;2.95;2.13;;;22.60;54.80;;;;;;5012979;28;20397;-75
2021/09/25 01:02:11;;;;;;;3.05;2.30;;;22.60;54.80;;;;;;5013542;28;20399;-75
2021/09/25 01:04:38;;;;;;;3.58;2.35;;;22.60;54.80;;;;;;5013549;28;20424;-74
2021/09/25 01:07:04;;;;;;;3.25;2.42;;;22.60;54.90;;;;;;5029623;28;20419;-75
2021/09/25 01:09:30;;;;;;;3.25;2.38;;;22.60;54.90;;;;;;5019176;28;20737;-75
2021/09/25 01:11:56;;;;;;;3.00;2.20;;;22.60;55.00;;;;;;5014702;28;20393;-75
2021/09/25 01:14:22;;;;;;;2.75;2.20;;;22.60;54.90;;;;;;5017214;28;20393;-76
2021/09/25 01:16:48;;;;;;;3.10;2.50;;;22.60;55.50;;;;;;5010108;28;20400;-76
2021/09/25 01:19:14;;;;;;;2.60;2.23;;;22.60;55.00;;;;;;5015953;28;20403;-75
2021/09/25 01:21:39;;;;;;;3.10;2.55;;;22.60;54.80;;;;;;5013609;28;20397;-75
2021/09/25 01:24:05;;;;;;;2.73;2.33;;;22.60;54.90;;;;;;5015880;28;20406;-75
2021/09/25 01:26:31;;;;;;;2.85;2.33;;;22.60;54.90;;;;;;5016375;28;20407;-76
2021/09/25 01:28:57;;;;;;;2.78;2.38;;;22.50;54.80;;;;;;5014907;28;20890;-75
2021/09/25 01:31:23;;;;;;;2.80;2.07;;;22.60;54.80;;;;;;5013257;28;20408;-75
2021/09/25 01:33:51;;;;;;;3.53;2.35;;;22.50;54.70;;;;;;5015221;28;20391;-75
2021/09/25 01:36:17;;;;;;;3.37;2.17;;;22.60;54.70;;;;;;5014397;28;20410;-75
2021/09/25 01:38:44;;;;;;;3.08;2.25;;;22.60;54.90;;;;;;5015345;28;20418;-75
2021/09/25 01:41:11;;;;;;;2.80;2.30;;;22.50;54.80;;;;;;5013200;28;20484;-74
2021/09/25 01:43:37;;;;;;;2.60;2.30;;;22.60;54.80;;;;;;5012722;28;20387;-75
2021/09/25 01:46:03;;;;;;;3.33;2.30;;;22.60;54.90;;;;;;5010623;28;20450;-76
2021/09/25 01:48:29;;;;;;;3.07;2.20;;;22.50;54.90;;;;;;5015346;28;20420;-75
2021/09/25 01:50:55;;;;;;;3.40;2.10;;;22.50;54.80;;;;;;5014721;28;20398;-75
2021/09/25 01:53:22;;;;;;;2.63;2.20;;;22.50;55.00;;;;;;5014630;28;21330;-74
2021/09/25 01:55:48;;;;;;;2.40;2.20;;;22.50;55.50;;;;;;5013149;28;21004;-74
2021/09/25 01:58:14;;;;;;;2.30;2.00;;;22.50;54.80;;;;;;5014953;28;20437;-77
2021/09/25 02:00:40;;;;;;;2.80;1.90;;;22.50;54.80;;;;;;5014591;28;20395;-75
2021/09/25 02:03:08;;;;;;;2.80;2.10;;;22.50;54.60;;;;;;5013943;28;20454;-78
2021/09/25 02:05:34;;;;;;;2.42;2.10;;;22.50;54.80;;;;;;5016432;28;20418;-75
2021/09/25 02:08:00;;;;;;;2.57;2.17;;;22.50;54.60;;;;;;5013137;28;20535;-76
2021/09/25 02:10:26;;;;;;;2.60;2.30;;;22.50;54.60;;;;;;5013031;28;20486;-74
2021/09/25 02:12:52;;;;;;;2.78;2.20;;;22.50;54.70;;;;;;5012346;28;20488;-78
2021/09/25 02:15:18;;;;;;;2.70;2.10;;;22.50;54.60;;;;;;5016113;28;20399;-78
2021/09/25 02:17:44;;;;;;;2.60;2.17;;;22.50;54.60;;;;;;5016418;28;20386;-78
2021/09/25 02:20:11;;;;;;;2.70;2.13;;;22.50;54.40;;;;;;5014578;28;20414;-78
2021/09/25 02:22:37;;;;;;;2.57;2.27;;;22.50;54.70;;;;;;5013667;28;20393;-77
2021/09/25 02:25:08;;;;;;;2.60;2.10;;;22.50;54.60;;;;;;5010383;28;20421;-76
2021/09/25 02:27:39;;;;;;;2.60;2.13;;;22.50;54.60;;;;;;5015136;28;20391;-75
2021/09/25 02:30:08;;;;;;;2.78;2.10;;;22.50;54.50;;;;;;5017044;28;20388;-76
2021/09/25 02:32:33;;;;;;;3.30;2.30;;;22.50;54.60;;;;;;5013784;28;20757;-74
2021/09/25 02:34:59;;;;;;;2.30;2.08;;;22.50;54.40;;;;;;5015190;28;20380;-76
2021/09/25 02:37:24;;;;;;;2.77;2.00;;;22.50;54.60;;;;;;5013057;28;20811;-75
2021/09/25 02:39:50;;;;;;;2.33;2.10;;;22.40;54.40;;;;;;5012884;28;20403;-75
2021/09/25 02:42:16;;;;;;;2.50;2.30;;;22.40;54.60;;;;;;5013591;28;20392;-76
2021/09/25 02:44:41;;;;;;;2.80;2.10;;;22.40;54.50;;;;;;5013791;28;21580;-76
2021/09/25 02:47:07;;;;;;;2.80;2.00;;;22.40;54.50;;;;;;5013249;28;20517;-75
2021/09/25 02:49:33;;;;;;;3.30;2.13;;;22.40;54.50;;;;;;5014644;28;20397;-76
2021/09/25 02:51:58;;;;;;;2.60;2.15;;;22.40;54.50;;;;;;5013586;28;20494;-75
2021/09/25 02:54:24;;;;;;;2.37;2.00;;;22.40;54.60;;;;;;5017313;28;20431;-76
2021/09/25 02:56:50;;;;;;;2.28;1.95;;;22.40;54.60;;;;;;5010944;28;20387;-75
2021/09/25 02:59:15;;;;;;;1.93;1.73;;;22.40;54.50;;;;;;5014204;28;20431;-75
2021/09/25 03:01:41;;;;;;;2.50;2.10;;;22.40;54.50;;;;;;5011623;28;20385;-75
2021/09/25 03:04:06;;;;;;;2.88;2.10;;;22.40;54.50;;;;;;5010443;28;20456;-76
2021/09/25 03:06:32;;;;;;;3.30;1.90;;;22.40;54.50;;;;;;5016757;28;20490;-75
2021/09/25 03:08:58;;;;;;;2.33;1.90;;;22.40;54.50;;;;;;5012085;28;20407;-75
2021/09/25 03:11:23;;;;;;;2.50;1.90;;;22.40;54.30;;;;;;5010546;28;20403;-74
2021/09/25 03:13:49;;;;;;;2.47;1.92;;;22.40;54.40;;;;;;5009491;28;20385;-74
2021/09/25 03:16:15;;;;;;;2.30;1.88;;;22.40;54.40;;;;;;5014325;28;20411;-75
2021/09/25 03:18:40;;;;;;;2.70;1.80;;;22.40;54.40;;;;;;5013588;28;20402;-75
2021/09/25 03:21:06;;;;;;;2.72;2.13;;;22.40;54.30;;;;;;5012027;28;20775;-75
2021/09/25 03:23:32;;;;;;;2.43;1.93;;;22.30;54.10;;;;;;5019653;28;20397;-76
2021/09/25 03:25:57;;;;;;;2.47;1.85;;;22.30;54.30;;;;;;5011279;28;20433;-75
2021/09/25 03:28:23;;;;;;;2.40;1.87;;;22.40;54.40;;;;;;5012898;28;20798;-75
2021/09/25 03:30:49;;;;;;;2.97;2.10;;;22.30;54.40;;;;;;5014785;28;20525;-75
2021/09/25 03:33:14;;;;;;;2.45;2.00;;;22.30;55.00;;;;;;5013682;28;20962;-75
2021/09/25 03:35:46;;;;;;;2.92;1.90;;;22.30;54.40;;;;;;5013560;28;20995;-74
2021/09/25 03:38:19;;;;;;;2.70;2.08;;;22.30;54.30;;;;;;5010787;28;20747;-75
2021/09/25 03:40:46;;;;;;;2.00;1.73;;;22.30;54.20;;;;;;5020015;28;20407;-76
2021/09/25 03:43:12;;;;;;;2.40;1.85;;;22.30;54.30;;;;;;5020124;28;20895;-74
2021/09/25 03:45:37;;;;;;;2.13;1.80;;;22.30;54.30;;;;;;5011520;28;20522;-77
2021/09/25 03:48:05;;;;;;;2.38;1.80;;;22.30;54.30;;;;;;5014133;28;20478;-76
2021/09/25 03:50:32;;;;;;;2.20;1.88;;;22.30;54.40;;;;;;5016055;28;20403;-78
2021/09/25 03:52:58;;;;;;;2.28;1.80;;;22.30;54.30;;;;;;5015561;28;20397;-77
2021/09/25 03:55:23;;;;;;;2.73;2.10;;;22.30;54.30;;;;;;5013230;28;20774;-77
2021/09/25 03:57:49;;;;;;;2.67;1.73;;;22.30;54.40;;;;;;5014321;28;20392;-78
2021/09/25 04:00:15;;;;;;;2.30;1.70;;;22.30;54.30;;;;;;5013863;28;20507;-78
2021/09/25 04:02:41;;;;;;;2.03;1.65;;;22.30;54.20;;;;;;5015879;28;20396;-76
2021/09/25 04:05:07;;;;;;;2.03;1.63;;;22.30;54.30;;;;;;5015839;28;20651;-77
2021/09/25 04:07:33;;;;;;;2.42;1.92;;;22.20;54.20;;;;;;5013773;28;20395;-78
2021/09/25 04:10:00;;;;;;;2.07;1.70;;;22.30;54.20;;;;;;5014733;28;20395;-76
2021/09/25 04:12:25;;;;;;;1.90;1.70;;;22.30;54.10;;;;;;5014540;28;20913;-76
2021/09/25 04:14:51;;;;;;;2.50;1.90;;;22.20;54.80;;;;;;5015468;28;20534;-77
2021/09/25 04:17:17;;;;;;;2.15;1.85;;;22.20;54.00;;;;;;5013512;28;20495;-74
2021/09/25 04:19:43;;;;;;;2.20;1.90;;;22.20;54.20;;;;;;5011844;28;20492;-75
2021/09/25 04:22:08;;;;;;;2.60;1.80;;;22.20;54.00;;;;;;5016163;28;20388;-75
2021/09/25 04:24:34;;;;;;;2.07;1.50;;;22.20;54.00;;;;;;5015408;28;20759;-76
2021/09/25 04:27:00;;;;;;;2.40;1.67;;;22.20;54.10;;;;;;5017644;28;20781;-74
2021/09/25 04:29:25;;;;;;;2.03;1.70;;;22.20;54.10;;;;;;5016319;28;20389;-75
2021/09/25 04:31:51;;;;;;;1.92;1.60;;;22.20;54.20;;;;;;5015512;28;20398;-75
2021/09/25 04:34:17;;;;;;;2.40;1.73;;;22.20;54.10;;;;;;5015851;28;20901;-75
2021/09/25 04:36:42;;;;;;;1.80;1.60;;;22.20;54.10;;;;;;5016319;28;20759;-75
2021/09/25 04:39:08;;;;;;;2.50;1.80;;;22.20;54.00;;;;;;5031241;28;20397;-75
2021/09/25 04:41:34;;;;;;;2.42;1.65;;;22.20;54.10;;;;;;5015840;28;20644;-75
2021/09/25 04:44:00;;;;;;;2.83;1.60;;;22.20;54.00;;;;;;5014783;28;20532;-75
2021/09/25 04:46:25;;;;;;;2.10;1.70;;;22.20;54.00;;;;;;5013617;28;20442;-75
2021/09/25 04:48:51;;;;;;;1.70;1.37;;;22.20;54.00;;;;;;5015877;28;20395;-76
2021/09/25 04:51:18;;;;;;;2.30;1.67;;;22.20;54.00;;;;;;5018641;28;20395;-78
2021/09/25 04:53:44;;;;;;;1.90;1.60;;;22.20;53.90;;;;;;5017445;28;20452;-76
2021/09/25 04:56:10;;;;;;;2.25;1.70;;;22.20;53.90;;;;;;5014943;28;20799;-78
2021/09/25 04:58:37;;;;;;;2.50;1.80;;;22.10;53.90;;;;;;5014794;28;20403;-76
2021/09/25 05:01:06;;;;;;;2.58;1.70;;;22.20;53.90;;;;;;5015173;28;20383;-75
2021/09/25 05:03:35;;;;;;;1.90;1.70;;;22.20;54.00;;;;;;5014680;28;20403;-76
2021/09/25 05:06:01;;;;;;;4.00;1.70;;;22.20;53.90;;;;;;5017713;28;20414;-76
2021/09/25 05:08:27;;;;;;;3.10;1.73;;;22.10;53.70;;;;;;5016778;28;20457;-74
2021/09/25 05:10:52;;;;;;;3.63;1.87;;;22.10;53.40;;;;;;5014237;28;21291;-75
2021/09/25 05:13:18;;;;;;;2.70;1.60;;;22.20;53.50;;;;;;5013005;28;20482;-76
2021/09/25 05:15:44;;;;;;;3.00;1.80;;;22.20;53.50;;;;;;5014286;28;20393;-76
2021/09/25 05:18:09;;;;;;;2.50;1.70;;;22.20;53.90;;;;;;5014290;28;20424;-76
2021/09/25 05:20:35;;;;;;;3.40;1.57;;;22.20;53.80;;;;;;5017314;28;20729;-78
2021/09/25 05:23:01;;;;;;;3.63;1.77;;;22.20;53.80;;;;;;5014974;28;20830;-79
2021/09/25 05:25:26;;;;;;;2.57;1.67;;;22.10;53.70;;;;;;5018849;28;20429;-77
2021/09/25 05:27:52;;;;;;;2.35;1.55;;;22.10;53.60;;;;;;5017064;28;20755;-75
2021/09/25 05:30:17;;;;;;;3.17;1.33;;;22.10;54.10;;;;;;5016847;28;20762;-80
2021/09/25 05:32:43;;;;;;;4.67;1.70;;;22.20;53.90;;;;;;5015470;28;20393;-78
2021/09/25 05:35:09;;;;;;;3.25;1.77;;;22.10;54.30;;;;;;5018013;28;20827;-77
2021/09/25 05:37:35;;;;;;;2.33;1.63;;;22.20;54.20;;;;;;5016113;28;20380;-75
2021/09/25 05:40:01;;;;;;;2.45;1.30;;;22.20;54.20;;;;;;5015833;28;20487;-80
2021/09/25 05:42:28;;;;;;;3.25;1.60;;;22.20;53.80;;;;;;5015007;28;20412;-80
2021/09/25 05:44:54;;;;;;;2.72;1.60;;;22.20;53.80;;;;;;5018272;28;20408;-79
2021/09/25 05:47:22;;;;;;;3.42;1.65;;;22.10;53.90;;;;;;5015598;28;20416;-79
2021/09/25 05:49:47;;;;;;;3.40;1.70;;;22.10;53.90;;;;;;5019523;28;20439;-78
2021/09/25 05:52:15;;;;;;;4.17;1.60;;;22.20;54.10;;;;;;5015624;28;20403;-80
2021/09/25 05:54:41;;;;;;;3.95;1.63;;;22.20;54.10;;;;;;5017180;28;20428;-78
2021/09/25 05:57:07;;;;;;;3.30;1.60;;;22.20;54.20;;;;;;5017770;28;20411;-80
2021/09/25 05:59:34;;;;;;;4.25;1.70;;;22.20;54.50;;;;;;5016980;28;20391;-80
2021/09/25 06:02:00;;;;;;;3.45;1.30;;;22.20;54.30;;;;;;5032259;28;20398;-79
2021/09/25 06:04:26;;;;;;;2.78;1.63;;;22.20;54.40;;;;;;5017715;28;20424;-78
2021/09/25 06:06:52;;;;;;;2.05;1.42;;;22.20;54.50;;;;;;5016883;28;20410;-79
2021/09/25 06:09:17;;;;;;;3.27;1.57;;;22.20;54.60;;;;;;5017132;28;20409;-75
2021/09/25 06:11:43;;;;;;;3.00;1.58;;;22.20;55.30;;;;;;5017249;28;20457;-79
2021/09/25 06:14:09;;;;;;;2.70;1.70;;;22.20;54.50;;;;;;5017624;28;20393;-78
2021/09/25 06:16:34;;;;;;;2.20;1.52;;;22.20;54.40;;;;;;5018406;28;20396;-82
2021/09/25 06:19:00;;;;;;;3.23;1.50;;;22.20;54.40;;;;;;5017186;28;20387;-78
2021/09/25 06:21:26;;;;;;;7.13;1.85;;;22.20;54.10;;;;;;5015997;28;20402;-81
2021/09/25 06:23:51;;;;;;;4.37;1.90;;;22.10;53.70;;;;;;5014960;28;20407;-80
2021/09/25 06:26:17;;;;;;;5.68;1.67;;;22.10;53.80;;;;;;5016689;28;20462;-79
2021/09/25 06:28:46;;;;;;;4.67;1.90;;;22.10;53.80;;;;;;5024165;28;20434;-79
2021/09/25 06:31:13;;;;;;;6.07;1.90;;;22.10;53.90;;;;;;5016265;28;20407;-80
2021/09/25 06:33:38;;;;;;;5.88;1.80;;;22.10;53.30;;;;;;5016143;28;20379;-77
2021/09/25 06:36:04;;;;;;;8.57;2.00;;;22.10;53.60;;;;;;5015725;28;20441;-80
2021/09/25 06:38:30;;;;;;;7.25;2.05;;;22.20;52.80;;;;;;5014940;28;20456;-82
2021/09/25 06:40:56;;;;;;;8.35;1.88;;;22.10;52.80;;;;;;5015193;28;20390;-80
2021/09/25 06:43:21;;;;;;;8.20;2.00;;;22.10;52.80;;;;;;5016243;28;21087;-78
2021/09/25 06:45:47;;;;;;;4.43;1.98;;;22.10;52.90;;;;;;5016632;28;20968;-78
2021/09/25 06:48:13;;;;;;;5.72;2.00;;;22.10;53.00;;;;;;5013970;28;20393;-76
2021/09/25 06:50:39;;;;;;;6.55;1.98;;;22.10;52.90;;;;;;5013940;28;20809;-77
2021/09/25 06:53:04;;;;;;;6.75;1.85;;;22.10;52.90;;;;;;5014410;28;20401;-78
2021/09/25 06:55:30;;;;;;;3.20;1.60;;;22.10;53.00;;;;;;5014467;28;20496;-75
2021/09/25 06:57:56;;;;;;;4.67;1.70;;;22.10;53.00;;;;;;5013982;28;20393;-78
2021/09/25 07:00:22;;;;;;;2.67;1.60;;;22.10;53.10;;;;;;5014318;28;20395;-77
2021/09/25 07:02:48;;;;;;;3.55;1.70;;;22.10;53.10;;;;;;5014685;28;20471;-78
2021/09/25 07:05:14;;;;;;;3.35;1.70;;;22.10;53.10;;;;;;5014177;28;20523;-76
2021/09/25 07:07:39;;;;;;;5.72;1.50;;;22.10;53.20;;;;;;5014632;28;20998;-76
2021/09/25 07:10:06;;;;;;;3.40;1.70;;;22.10;53.20;;;;;;5013024;28;20400;-75
2021/09/25 07:12:32;;;;;;;4.18;1.30;;;22.10;53.20;;;;;;5011158;28;20395;-78
2021/09/25 07:14:58;;;;;;;4.35;1.40;;;22.10;53.30;;;;;;5013760;28;20399;-75
2021/09/25 07:17:24;;;;;;;2.33;1.52;;;22.10;53.40;;;;;;5015633;28;20392;-76
2021/09/25 07:19:51;;;;;;;2.65;1.50;;;22.10;53.40;;;;;;5013111;28;20433;-76
2021/09/25 07:22:16;;;;;;;2.40;1.58;;;22.20;53.50;;;;;;5013596;28;21198;-76
2021/09/25 07:24:42;;;;;;;2.40;1.50;;;22.20;53.50;;;;;;5012654;28;20426;-76
2021/09/25 07:27:08;;;;;;;2.20;1.40;;;22.20;53.50;;;;;;5013884;28;20484;-75
2021/09/25 07:29:34;;;;;;;2.45;1.40;;;22.20;53.60;;;;;;5014536;28;20399;-77
2021/09/25 07:32:00;;;;;;;2.08;1.23;;;22.20;53.50;;;;;;5014264;28;20397;-78
2021/09/25 07:34:27;;;;;;;2.30;1.30;;;22.20;53.60;;;;;;5013475;28;20389;-77
2021/09/25 07:36:54;;;;;;;2.20;1.40;;;22.20;53.60;;;;;;5013246;28;20480;-76
2021/09/25 07:39:19;;;;;;;3.13;1.50;;;22.20;53.60;;;;;;5015405;28;20397;-77
2021/09/25 07:41:45;;;;;;;2.23;1.60;;;22.20;53.60;;;;;;5013371;28;20400;-76
2021/09/25 07:44:11;;;;;;;1.98;1.20;;;22.20;53.60;;;;;;5014274;28;20409;-77
2021/09/25 07:46:37;;;;;;;2.00;1.30;;;22.20;53.60;;;;;;5013559;28;20434;-77
2021/09/25 07:49:03;;;;;;;1.45;1.00;;;22.20;53.60;;;;;;5014023;28;20392;-76
2021/09/25 07:51:29;;;;;;;2.20;1.23;;;22.20;53.70;;;;;;5016437;28;20502;-78
2021/09/25 07:53:55;;;;;;;2.53;1.40;;;22.20;53.80;;;;;;5013216;28;20387;-77
2021/09/25 07:56:21;;;;;;;2.30;1.35;;;22.30;53.80;;;;;;5014379;28;20433;-77
2021/09/25 07:58:48;;;;;;;2.60;1.40;;;22.30;53.80;;;;;;5018914;28;20391;-75
2021/09/25 08:01:13;;;;;;;2.63;1.50;;;22.30;53.70;;;;;;5019906;28;20492;-76
2021/09/25 08:03:39;;;;;;;2.28;1.45;;;22.30;53.80;;;;;;5017096;28;20473;-76
2021/09/25 08:06:06;;;;;;;3.13;1.42;;;22.30;53.70;;;;;;5025243;28;20511;-77
2021/09/25 08:08:31;;;;;;;2.10;1.40;;;22.30;53.80;;;;;;5015908;28;20895;-76
2021/09/25 08:10:57;;;;;;;2.33;1.52;;;22.30;53.90;;;;;;5019265;28;20399;-78
2021/09/25 08:13:23;;;;;;;1.55;1.25;;;22.40;54.00;;;;;;5033598;28;20458;-75
2021/09/25 08:15:49;;;;;;;1.73;1.23;;;22.40;53.90;;;;;;5019261;28;20391;-78
2021/09/25 08:18:16;;;;;;;2.50;1.25;;;22.40;54.00;;;;;;5017470;28;20385;-75
2021/09/25 08:20:41;;;;;;;2.03;1.38;;;22.40;53.90;;;;;;5017567;28;20400;-76
2021/09/25 08:23:07;;;;;;;1.90;1.30;;;22.40;53.90;;;;;;5017112;28;20391;-77
2021/09/25 08:25:33;;;;;;;1.97;1.50;;;22.40;53.90;;;;;;5024476;28;20960;-77
2021/09/25 08:27:58;;;;;;;2.85;1.40;;;22.40;53.90;;;;;;5018149;28;20379;-78
2021/09/25 08:30:25;;;;;;;1.50;1.10;;;22.50;54.00;;;;;;5017481;28;20495;-77
2021/09/25 08:32:52;;;;;;;1.40;1.15;;;22.50;53.90;;;;;;5016013;28;20460;-77
2021/09/25 08:35:18;;;;;;;1.85;1.20;;;22.50;53.80;;;;;;5018856;28;20476;-77
2021/09/25 08:37:44;;;;;;;2.00;1.27;;;22.50;53.90;;;;;;5024967;28;20661;-77
2021/09/25 08:40:13;;;;;;;1.95;1.30;;;22.50;53.90;;;;;;5016828;28;20471;-78
2021/09/25 08:42:39;;;;;;;1.85;1.30;;;22.50;53.90;;;;;;5013714;28;20436;-78
2021/09/25 08:45:06;;;;;;;1.70;1.10;;;22.50;53.80;;;;;;5015574;28;20940;-76
2021/09/25 08:47:37;;;;;;;1.40;1.15;;;22.50;53.90;;;;;;5016512;28;20383;-76
2021/09/25 08:50:04;;;;;;;1.80;1.30;;;22.50;53.80;;;;;;5014747;28;20513;-77
2021/09/25 08:52:30;;;;;;;1.43;1.10;;;22.60;53.80;;;;;;5014208;28;20556;-75
2021/09/25 08:54:56;;;;;;;1.60;1.15;;;22.60;53.80;;;;;;5024266;28;20966;-77
2021/09/25 08:57:21;;;;;;;1.90;1.30;;;22.60;53.70;;;;;;5016289;28;20487;-77
2021/09/25 08:59:47;;;;;;;1.60;1.10;;;22.60;53.80;;;;;;5018189;28;20407;-77
2021/09/25 09:02:19;;;;;;;1.60;1.30;;;22.60;53.80;;;;;;5016178;28;20401;-75
2021/09/25 09:04:53;;;;;;;3.10;1.48;;;22.60;53.70;;;;;;5018115;28;20419;-78
2021/09/25 09:07:21;;;;;;;2.88;1.42;;;22.60;53.70;;;;;;5028088;28;20492;-78
2021/09/25 09:09:48;;;;;;;3.05;1.30;;;22.60;53.50;;;;;;5016408;28;20396;-77
2021/09/25 09:12:19;;;;;;;2.60;1.33;;;22.60;53.50;;;;;;5013440;28;20437;-78
2021/09/25 09:14:46;;;;;;;2.03;1.20;;;22.60;53.40;;;;;;5014720;28;20396;-78
2021/09/25 09:17:31;;;;;;;2.22;1.10;;;22.60;53.40;;;;;;5014466;28;20399;-78
2021/09/25 09:19:57;;;;;;;1.80;1.10;;;22.60;53.50;;;;;;5016630;28;20399;-78
2021/09/25 09:22:24;;;;;;;1.60;1.10;;;22.60;53.40;;;;;;5018020;28;20375;-78
2021/09/25 09:24:53;;;;;;;2.70;1.20;;;22.60;53.40;;;;;;5010736;28;20475;-78
2021/09/25 09:27:22;;;;;;;1.60;1.15;;;22.60;53.40;;;;;;5015198;28;20428;-78
2021/09/25 09:29:48;;;;;;;2.00;1.25;;;22.60;53.40;;;;;;5012955;28;20400;-78
2021/09/25 09:32:14;;;;;;;2.17;1.30;;;22.60;53.40;;;;;;5016336;28;20403;-75
2021/09/25 09:34:41;;;;;;;1.90;1.33;;;22.60;53.30;;;;;;5012879;28;20423;-78
2021/09/25 09:37:16;;;;;;;1.48;1.10;;;22.60;53.30;;;;;;5018116;28;20820;-78
2021/09/25 09:39:42;;;;;;;2.15;1.35;;;22.60;53.30;;;;;;5011117;28;20400;-78
2021/09/25 09:42:08;;;;;;;1.80;1.20;;;22.60;53.30;;;;;;5010893;28;20762;-78
2021/09/25 09:44:34;;;;;;;1.55;1.20;;;22.60;53.20;;;;;;5012500;28;20495;-78
2021/09/25 09:47:07;;;;;;;1.50;1.10;;;22.60;53.30;;;;;;5012598;28;20403;-76
2021/09/25 09:49:35;;;;;;;2.05;1.10;;;22.60;53.30;;;;;;5016351;28;20395;-78
2021/09/25 09:52:05;;;;;;;1.48;1.10;;;22.60;53.30;;;;;;5017738;28;20399;-79
2021/09/25 09:54:32;;;;;;;1.65;1.27;;;22.60;53.40;;;;;;5014869;28;20413;-75
2021/09/25 09:57:23;;;;;;;2.20;1.40;;;22.60;53.40;;;;;;5012186;28;20400;-76
2021/09/25 09:59:50;;;;;;;1.85;1.33;;;22.60;53.40;;;;;;5027961;28;20459;-75
2021/09/25 10:02:17;;;;;;;1.65;1.30;;;22.60;53.40;;;;;;5014691;28;21004;-78
2021/09/25 10:04:44;;;;;;;2.25;1.35;;;22.60;53.40;;;;;;5012537;28;20416;-76
2021/09/25 10:07:10;;;;;;;2.33;1.30;;;22.70;53.40;;;;;;5017962;28;20418;-76
2021/09/25 10:09:38;;;;;;;1.98;1.20;;;22.70;53.30;;;;;;5009442;28;20387;-76
2021/09/25 10:12:06;;;;;;;1.52;1.30;;;22.70;53.40;;;;;;5013841;28;20393;-75
2021/09/25 10:14:33;;;;;;;2.90;1.40;;;22.60;53.40;;;;;;5011386;28;20399;-76
2021/09/25 10:17:03;;;;;;;1.90;1.15;;;22.70;53.50;;;;;;5012051;28;20384;-74
2021/09/25 10:19:31;;;;;;;1.60;1.23;;;22.70;53.40;;;;;;5012484;28;20401;-77
2021/09/25 10:22:15;;;;;;;1.85;1.33;;;22.70;53.30;;;;;;5014996;28;20421;-75
2021/09/25 10:24:51;;;;;;;1.58;1.20;;;22.70;53.40;;;;;;5013854;28;20499;-78
2021/09/25 10:27:18;;;;;;;1.92;1.10;;;22.70;53.40;;;;;;5013443;28;20591;-76
2021/09/25 10:29:51;;;;;;;2.27;1.30;;;22.70;53.40;;;;;;5015845;28;20388;-76
2021/09/25 10:32:26;;;;;;;1.60;1.30;;;22.70;53.40;;;;;;5010993;28;20396;-75
2021/09/25 10:35:11;;;;;;;2.35;1.30;;;22.70;53.40;;;;;;5023934;28;20389;-75
2021/09/25 10:37:50;;;;;;;1.67;1.25;;;22.70;53.30;;;;;;5006163;28;20388;-76
2021/09/25 10:40:21;;;;;;;1.70;1.27;;;22.70;53.40;;;;;;5012257;28;20401;-76
2021/09/25 10:42:55;;;;;;;1.55;1.17;;;22.70;53.40;;;;;;5013079;28;20391;-76
2021/09/25 10:45:27;;;;;;;1.90;1.40;;;22.70;53.30;;;;;;5011841;28;20477;-76
2021/09/25 10:48:24;;;;;;;1.80;1.20;;;22.70;53.30;;;;;;5010773;28;20429;-75
2021/09/25 10:50:57;;;;;;;1.77;1.30;;;22.70;53.30;;;;;;5012792;28;20435;-75
2021/09/25 10:53:25;;;;;;;1.58;1.25;;;22.70;53.30;;;;;;5010814;28;20396;-76
2021/09/25 10:55:57;;;;;;;1.40;1.10;;;22.70;53.30;;;;;;5011922;28;20974;-75
2021/09/25 10:58:31;;;;;;;1.50;1.10;;;22.70;53.20;;;;;;5013493;28;20445;-76
2021/09/25 11:01:02;;;;;;;1.60;1.27;;;22.70;53.20;;;;;;5014249;28;20459;-76
2021/09/25 11:03:42;;;;;;;1.75;1.27;;;22.70;53.00;;;;;;5012457;28;20395;-76
2021/09/25 11:06:08;;;;;;;1.90;1.20;;;22.80;53.70;;;;;;5012535;28;20427;-75
2021/09/25 11:08:36;;;;;;;2.00;1.00;;;22.80;53.20;;;;;;5010587;28;20409;-75
2021/09/25 11:11:11;;;;;;;1.77;1.20;;;22.80;53.10;;;;;;5013452;28;20433;-75
2021/09/25 11:14:02;;;;;;;2.10;1.10;;;22.80;53.00;;;;;;5014168;28;20904;-76
2021/09/25 11:16:46;;;;;;;2.20;1.20;;;22.80;52.90;;;;;;5012062;28;20922;-76
2021/09/25 11:19:29;;;;;;;1.30;1.10;;;22.80;53.00;;;;;;5010897;28;20393;-75
2021/09/25 11:21:58;;;;;;;1.50;1.20;;;22.80;53.10;;;;;;5014303;28;20448;-77
2021/09/25 11:24:25;;;;;;;1.70;1.30;;;22.80;53.10;;;;;;5011523;28;20418;-75
2021/09/25 11:26:51;;;;;;;1.40;1.20;;;22.80;53.20;;;;;;5014909;28;20529;-74
2021/09/25 11:29:17;;;;;;;1.20;1.05;;;22.80;53.10;;;;;;5011369;28;20476;-75
2021/09/25 11:31:47;;;;;;;1.23;1.07;;;22.80;52.90;;;;;;5014365;28;20427;-75
2021/09/25 11:34:39;;;;;;;1.80;1.30;;;22.80;53.00;;;;;;5010917;28;20371;-77
2021/09/25 11:37:06;;;;;;;1.30;1.00;;;22.80;52.90;;;;;;5011383;28;20404;-77
2021/09/25 11:39:38;;;;;;;1.40;1.10;;;22.80;52.80;;;;;;5012837;28;20398;-76
2021/09/25 11:42:13;;;;;;;1.60;1.00;;;22.90;52.80;;;;;;5011641;28;20484;-76
2021/09/25 11:44:44;;;;;;;1.40;1.20;;;22.90;52.80;;;;;;5011958;28;20414;-75
2021/09/25 11:47:11;;;;;;;1.70;1.10;;;22.90;52.80;;;;;;5015184;28;20443;-75
2021/09/25 11:49:37;;;;;;;1.33;1.10;;;22.90;52.60;;;;;;5011781;28;20460;-75
2021/09/25 11:52:03;;;;;;;1.88;1.30;;;22.90;52.70;;;;;;5013627;28;20437;-76
2021/09/25 11:54:29;;;;;;;1.60;1.10;;;22.90;52.50;;;;;;5029881;28;20394;-75
2021/09/25 11:56:54;;;;;;;1.65;1.27;;;22.90;52.60;;;;;;5014990;28;20405;-75
2021/09/25 11:59:21;;;;;;;1.87;1.27;;;22.90;52.60;;;;;;5013920;28;20491;-74
2021/09/25 12:01:47;;;;;;;1.58;1.27;;;22.90;52.60;;;;;;5013399;28;20427;-74
2021/09/25 12:04:14;;;;;;;1.70;1.30;;;22.90;52.50;;;;;;5012336;28;20428;-75
2021/09/25 12:06:53;;;;;;;1.40;1.10;;;22.90;52.70;;;;;;5010308;28;20715;-76
2021/09/25 12:09:41;;;;;;;1.88;1.25;;;22.90;52.60;;;;;;5028751;28;20745;-75
2021/09/25 12:12:08;;;;;;;1.45;1.10;;;23.00;52.70;;;;;;5015593;28;20401;-74
2021/09/25 12:14:44;;;;;;;1.80;1.13;;;23.00;52.70;;;;;;5011770;28;20392;-75
2021/09/25 12:17:14;;;;;;;1.40;1.20;;;23.00;52.70;;;;;;5028035;28;20431;-75
2021/09/25 12:19:43;;;;;;;1.58;1.10;;;23.00;52.70;;;;;;5014451;28;20926;-75
2021/09/25 12:22:21;;;;;;;1.35;1.05;;;23.00;52.70;;;;;;5011011;28;20409;-75
2021/09/25 12:24:47;;;;;;;2.05;1.30;;;23.00;52.70;;;;;;5013702;28;21460;-75
2021/09/25 12:27:24;;;;;;;1.67;1.17;;;23.00;52.70;;;;;;5009359;28;20389;-75
2021/09/25 12:29:50;;;;;;;1.40;1.20;;;23.00;52.70;;;;;;5012080;28;20407;-79
2021/09/25 12:32:19;;;;;;;1.30;1.10;;;23.10;52.80;;;;;;5012425;28;20405;-75
2021/09/25 12:34:49;;;;;;;1.57;1.10;;;23.10;52.80;;;;;;5014511;28;20435;-77
2021/09/25 12:37:15;;;;;;;3.90;1.40;;;23.10;52.80;;;;;;5012095;28;20444;-75
2021/09/25 12:39:44;;;;;;;3.35;1.30;;;23.10;52.90;;;;;;5017122;28;20422;-78
2021/09/25 12:42:22;;;;;;;6.73;1.60;;;23.10;52.90;;;;;;5014829;28;20411;-75
2021/09/25 12:44:51;;;;;;;6.50;1.88;;;23.20;53.10;;;;;;5017218;28;20411;-78
2021/09/25 12:47:29;;;;;;;6.47;2.13;;;23.20;53.10;;;;;;5016910;28;20402;-79
2021/09/25 12:50:19;;;;;;;6.22;1.80;;;23.20;53.20;;;;;;5035397;28;20391;-81